Flight Briefing for CPX84

Departure Arrival
Daniel K Inouye International Airport (PHNL)
Click to view FAA NOTAMS
Auckland International Airport (NZAA)
Click to view FAA NOTAMS
Departure Time Arrival Time
N/A N/A
Aircraft Distance
MD-11SF 3832nm
Departure METAR Arrival METAR
PHNL 180553Z 33006KT 10SM FEW020 FEW035 SCT050 21/16 A2996 RMK AO2 SLP145 VCSH NE 60000 T02060161 10244 20206 51012 NZAA 180600Z AUTO 22012KT 9999 NCD 21/13 Q1014 BECMG FM0700 VRB02KT
Suggested Route
OPIHI2 CARRP DATBE G347 DASNE G347 PUPIS G347 AA


View recent IFR Routes data
Notes



Charts and Procedures

Charts for PHNL
No chart available
Charts for NZAA
No chart available

Ventusky Weather